sensor_id;sensor_type;location;lat;lon;timestamp;pressure;altitude;pressure_sealevel;temperature;humidity
71638;BME280;59485;43.542;-5.676;2023-09-18T00:01:42;100640.41;;;21.33;100.00
71638;BME280;59485;43.542;-5.676;2023-09-18T00:04:07;100644.91;;;21.40;100.00
71638;BME280;59485;43.542;-5.676;2023-09-18T00:06:33;100632.09;;;21.39;100.00
71638;BME280;59485;43.542;-5.676;2023-09-18T00:08:58;100644.16;;;21.17;100.00
71638;BME280;59485;43.542;-5.676;2023-09-18T00:11:24;100638.50;;;21.12;100.00
71638;BME280;59485;43.542;-5.676;2023-09-18T00:13:50;100640.75;;;21.15;100.00
71638;BME280;59485;43.542;-5.676;2023-09-18T00:16:15;100645.50;;;21.15;100.00
71638;BME280;59485;43.542;-5.676;2023-09-18T00:18:42;100644.28;;;21.06;100.00
71638;BME280;59485;43.542;-5.676;2023-09-18T00:21:08;100654.97;;;21.14;100.00
71638;BME280;59485;43.542;-5.676;2023-09-18T00:23:36;100647.44;;;21.14;100.00
71638;BME280;59485;43.542;-5.676;2023-09-18T00:26:01;100649.53;;;21.24;100.00
71638;BME280;59485;43.542;-5.676;2023-09-18T00:28:27;100646.97;;;21.17;100.00
71638;BME280;59485;43.542;-5.676;2023-09-18T00:30:52;100653.00;;;21.14;100.00
71638;BME280;59485;43.542;-5.676;2023-09-18T00:33:19;100655.69;;;21.04;100.00
71638;BME280;59485;43.542;-5.676;2023-09-18T00:35:48;100654.81;;;20.98;100.00
71638;BME280;59485;43.542;-5.676;2023-09-18T00:38:15;100649.00;;;20.78;100.00
71638;BME280;59485;43.542;-5.676;2023-09-18T00:40:40;100653.81;;;20.83;100.00
71638;BME280;59485;43.542;-5.676;2023-09-18T00:43:06;100660.34;;;20.72;100.00
71638;BME280;59485;43.542;-5.676;2023-09-18T00:45:32;100654.81;;;20.77;100.00
71638;BME280;59485;43.542;-5.676;2023-09-18T00:47:58;100649.78;;;20.74;100.00
71638;BME280;59485;43.542;-5.676;2023-09-18T00:50:24;100661.84;;;20.57;100.00
71638;BME280;59485;43.542;-5.676;2023-09-18T00:52:50;100658.03;;;20.64;100.00
71638;BME280;59485;43.542;-5.676;2023-09-18T00:55:16;100667.28;;;20.69;100.00
71638;BME280;59485;43.542;-5.676;2023-09-18T00:57:42;100667.28;;;20.69;100.00
71638;BME280;59485;43.542;-5.676;2023-09-18T01:00:09;100660.81;;;20.64;100.00
71638;BME280;59485;43.542;-5.676;2023-09-18T01:02:34;100659.63;;;20.59;100.00
71638;BME280;59485;43.542;-5.676;2023-09-18T01:05:00;100666.97;;;20.66;100.00
71638;BME280;59485;43.542;-5.676;2023-09-18T01:07:26;100655.75;;;20.60;100.00
71638;BME280;59485;43.542;-5.676;2023-09-18T01:09:53;100657.50;;;20.67;100.00
71638;BME280;59485;43.542;-5.676;2023-09-18T01:12:40;100664.22;;;20.71;100.00
71638;BME280;59485;43.542;-5.676;2023-09-18T01:17:40;100656.59;;;20.83;100.00
71638;BME280;59485;43.542;-5.676;2023-09-18T01:20:10;100657.94;;;20.80;100.00
71638;BME280;59485;43.542;-5.676;2023-09-18T01:22:39;100650.38;;;20.76;100.00
71638;BME280;59485;43.542;-5.676;2023-09-18T01:25:05;100654.91;;;20.82;100.00
71638;BME280;59485;43.542;-5.676;2023-09-18T01:27:32;100657.16;;;20.85;100.00
71638;BME280;59485;43.542;-5.676;2023-09-18T01:29:57;100659.94;;;20.85;100.00
71638;BME280;59485;43.542;-5.676;2023-09-18T01:32:25;100655.78;;;20.87;100.00
71638;BME280;59485;43.542;-5.676;2023-09-18T01:34:54;100660.63;;;20.97;100.00
71638;BME280;59485;43.542;-5.676;2023-09-18T01:37:23;100676.31;;;21.03;100.00
71638;BME280;59485;43.542;-5.676;2023-09-18T01:39:51;100699.03;;;20.90;100.00
71638;BME280;59485;43.542;-5.676;2023-09-18T01:42:17;100684.94;;;21.02;100.00
71638;BME280;59485;43.542;-5.676;2023-09-18T01:44:44;100680.75;;;20.99;100.00
71638;BME280;59485;43.542;-5.676;2023-09-18T01:47:12;100681.25;;;20.96;100.00
71638;BME280;59485;43.542;-5.676;2023-09-18T01:49:40;100702.66;;;20.90;100.00
71638;BME280;59485;43.542;-5.676;2023-09-18T01:52:07;100697.47;;;20.99;100.00
71638;BME280;59485;43.542;-5.676;2023-09-18T01:54:33;100696.31;;;20.73;100.00
71638;BME280;59485;43.542;-5.676;2023-09-18T01:56:59;100700.16;;;20.50;100.00
71638;BME280;59485;43.542;-5.676;2023-09-18T01:59:25;100695.53;;;20.56;100.00
71638;BME280;59485;43.542;-5.676;2023-09-18T02:01:51;100690.41;;;20.70;100.00
71638;BME280;59485;43.542;-5.676;2023-09-18T02:04:19;100691.97;;;20.60;100.00
71638;BME280;59485;43.542;-5.676;2023-09-18T02:06:45;100701.88;;;20.51;100.00
71638;BME280;59485;43.542;-5.676;2023-09-18T02:09:11;100698.38;;;20.39;100.00
71638;BME280;59485;43.542;-5.676;2023-09-18T02:11:38;100702.97;;;20.50;100.00
71638;BME280;59485;43.542;-5.676;2023-09-18T02:14:04;100710.16;;;20.30;100.00
71638;BME280;59485;43.542;-5.676;2023-09-18T02:16:35;100703.78;;;20.12;100.00
71638;BME280;59485;43.542;-5.676;2023-09-18T02:19:02;100701.84;;;20.13;100.00
71638;BME280;59485;43.542;-5.676;2023-09-18T02:21:27;100692.38;;;20.14;100.00
71638;BME280;59485;43.542;-5.676;2023-09-18T02:23:53;100697.09;;;20.30;100.00
71638;BME280;59485;43.542;-5.676;2023-09-18T02:26:20;100712.66;;;20.31;100.00
71638;BME280;59485;43.542;-5.676;2023-09-18T02:28:46;100706.88;;;20.16;100.00
71638;BME280;59485;43.542;-5.676;2023-09-18T02:31:12;100707.47;;;20.18;100.00
71638;BME280;59485;43.542;-5.676;2023-09-18T02:33:38;100718.69;;;20.23;100.00
71638;BME280;59485;43.542;-5.676;2023-09-18T02:36:04;100731.34;;;20.14;100.00
71638;BME280;59485;43.542;-5.676;2023-09-18T02:38:30;100742.22;;;20.15;100.00
71638;BME280;59485;43.542;-5.676;2023-09-18T02:40:56;100732.88;;;20.05;100.00
71638;BME280;59485;43.542;-5.676;2023-09-18T02:43:23;100727.31;;;20.05;100.00
71638;BME280;59485;43.542;-5.676;2023-09-18T02:45:49;100731.88;;;20.11;100.00
71638;BME280;59485;43.542;-5.676;2023-09-18T02:48:16;100745.88;;;19.99;100.00
71638;BME280;59485;43.542;-5.676;2023-09-18T02:50:41;100748.66;;;19.99;100.00
71638;BME280;59485;43.542;-5.676;2023-09-18T02:53:11;100738.72;;;20.03;100.00
71638;BME280;59485;43.542;-5.676;2023-09-18T02:55:41;100740.06;;;20.01;100.00
71638;BME280;59485;43.542;-5.676;2023-09-18T02:58:07;100758.44;;;20.02;100.00
71638;BME280;59485;43.542;-5.676;2023-09-18T03:00:34;100753.19;;;20.05;100.00
71638;BME280;59485;43.542;-5.676;2023-09-18T03:03:00;100753.47;;;20.04;100.00
71638;BME280;59485;43.542;-5.676;2023-09-18T03:05:25;100772.00;;;20.15;100.00
71638;BME280;59485;43.542;-5.676;2023-09-18T03:07:52;100769.97;;;20.27;100.00
71638;BME280;59485;43.542;-5.676;2023-09-18T03:10:17;100760.81;;;20.10;100.00
71638;BME280;59485;43.542;-5.676;2023-09-18T03:12:47;100768.56;;;20.08;100.00
71638;BME280;59485;43.542;-5.676;2023-09-18T03:15:13;100768.28;;;20.26;100.00
71638;BME280;59485;43.542;-5.676;2023-09-18T03:17:38;100774.44;;;20.28;100.00
71638;BME280;59485;43.542;-5.676;2023-09-18T03:20:07;100775.72;;;20.20;100.00
71638;BME280;59485;43.542;-5.676;2023-09-18T03:22:33;100777.66;;;20.20;100.00
71638;BME280;59485;43.542;-5.676;2023-09-18T03:24:59;100781.38;;;20.26;100.00
71638;BME280;59485;43.542;-5.676;2023-09-18T03:27:24;100769.81;;;20.17;100.00
71638;BME280;59485;43.542;-5.676;2023-09-18T03:29:54;100775.72;;;20.20;100.00
71638;BME280;59485;43.542;-5.676;2023-09-18T03:32:20;100791.53;;;19.86;100.00
71638;BME280;59485;43.542;-5.676;2023-09-18T03:34:46;100788.00;;;19.74;100.00
71638;BME280;59485;43.542;-5.676;2023-09-18T03:37:11;100811.31;;;19.57;100.00
71638;BME280;59485;43.542;-5.676;2023-09-18T03:39:37;100804.69;;;19.74;100.00
71638;BME280;59485;43.542;-5.676;2023-09-18T03:42:02;100811.22;;;19.97;100.00
71638;BME280;59485;43.542;-5.676;2023-09-18T03:44:28;100807.50;;;19.91;100.00
71638;BME280;59485;43.542;-5.676;2023-09-18T03:46:54;100825.03;;;19.75;100.00
71638;BME280;59485;43.542;-5.676;2023-09-18T03:49:20;100816.72;;;19.63;100.00
71638;BME280;59485;43.542;-5.676;2023-09-18T03:51:45;100831.44;;;19.75;100.00
71638;BME280;59485;43.542;-5.676;2023-09-18T03:54:11;100831.22;;;19.65;100.00
71638;BME280;59485;43.542;-5.676;2023-09-18T03:56:36;100831.91;;;19.72;100.00
71638;BME280;59485;43.542;-5.676;2023-09-18T03:59:02;100834.47;;;19.74;100.00
71638;BME280;59485;43.542;-5.676;2023-09-18T04:01:27;100836.19;;;19.63;100.00
71638;BME280;59485;43.542;-5.676;2023-09-18T04:03:53;100846.47;;;19.63;100.00
71638;BME280;59485;43.542;-5.676;2023-09-18T04:06:21;100849.66;;;19.55;100.00
71638;BME280;59485;43.542;-5.676;2023-09-18T04:08:49;100852.19;;;19.56;100.00
71638;BME280;59485;43.542;-5.676;2023-09-18T04:11:15;100850.41;;;19.50;100.00
71638;BME280;59485;43.542;-5.676;2023-09-18T04:13:40;100840.97;;;19.39;100.00
71638;BME280;59485;43.542;-5.676;2023-09-18T04:16:06;100836.66;;;19.32;100.00
71638;BME280;59485;43.542;-5.676;2023-09-18T04:18:33;100846.31;;;19.29;100.00
71638;BME280;59485;43.542;-5.676;2023-09-18T04:20:58;100848.75;;;19.26;100.00
71638;BME280;59485;43.542;-5.676;2023-09-18T04:23:26;100846.66;;;19.33;100.00
71638;BME280;59485;43.542;-5.676;2023-09-18T04:25:53;100848.34;;;19.34;100.00
71638;BME280;59485;43.542;-5.676;2023-09-18T04:28:21;100844.00;;;19.50;100.00
71638;BME280;59485;43.542;-5.676;2023-09-18T04:30:50;100841.22;;;19.38;100.00
71638;BME280;59485;43.542;-5.676;2023-09-18T04:33:16;100853.28;;;19.43;100.00
71638;BME280;59485;43.542;-5.676;2023-09-18T04:35:43;100848.75;;;19.66;100.00
71638;BME280;59485;43.542;-5.676;2023-09-18T04:38:09;100859.94;;;19.54;100.00
71638;BME280;59485;43.542;-5.676;2023-09-18T04:40:36;100851.75;;;19.47;100.00
71638;BME280;59485;43.542;-5.676;2023-09-18T04:43:02;100852.34;;;19.50;100.00
71638;BME280;59485;43.542;-5.676;2023-09-18T04:45:30;100853.03;;;19.57;100.00
71638;BME280;59485;43.542;-5.676;2023-09-18T04:47:58;100869.47;;;19.58;100.00
71638;BME280;59485;43.542;-5.676;2023-09-18T04:50:24;100863.31;;;19.56;100.00
71638;BME280;59485;43.542;-5.676;2023-09-18T04:52:52;100867.19;;;19.55;100.00
71638;BME280;59485;43.542;-5.676;2023-09-18T04:55:19;100872.06;;;19.48;100.00
71638;BME280;59485;43.542;-5.676;2023-09-18T04:57:45;100865.84;;;19.46;100.00
71638;BME280;59485;43.542;-5.676;2023-09-18T05:00:11;100860.50;;;19.68;100.00
71638;BME280;59485;43.542;-5.676;2023-09-18T05:02:39;100855.50;;;19.70;100.00
71638;BME280;59485;43.542;-5.676;2023-09-18T05:05:06;100851.78;;;19.93;100.00
71638;BME280;59485;43.542;-5.676;2023-09-18T05:07:34;100851.31;;;20.12;100.00
71638;BME280;59485;43.542;-5.676;2023-09-18T05:10:00;100864.41;;;20.29;100.00
71638;BME280;59485;43.542;-5.676;2023-09-18T05:12:25;100857.59;;;20.36;100.00
71638;BME280;59485;43.542;-5.676;2023-09-18T05:14:51;100862.47;;;20.46;100.00
71638;BME280;59485;43.542;-5.676;2023-09-18T05:17:17;100857.66;;;20.58;100.00
71638;BME280;59485;43.542;-5.676;2023-09-18T05:19:44;100870.91;;;20.51;100.00
71638;BME280;59485;43.542;-5.676;2023-09-18T05:22:12;100874.22;;;20.65;100.00
71638;BME280;59485;43.542;-5.676;2023-09-18T05:24:40;100888.81;;;20.72;100.00
71638;BME280;59485;43.542;-5.676;2023-09-18T05:27:06;100878.84;;;20.76;100.00
71638;BME280;59485;43.542;-5.676;2023-09-18T05:29:32;100891.84;;;20.70;100.00
71638;BME280;59485;43.542;-5.676;2023-09-18T05:31:58;100897.72;;;20.90;100.00
71638;BME280;59485;43.542;-5.676;2023-09-18T05:34:23;100899.16;;;20.76;100.00
71638;BME280;59485;43.542;-5.676;2023-09-18T05:36:49;100899.94;;;20.88;100.00
71638;BME280;59485;43.542;-5.676;2023-09-18T05:39:15;100906.97;;;20.74;100.00
71638;BME280;59485;43.542;-5.676;2023-09-18T05:41:41;100917.50;;;20.72;100.00
71638;BME280;59485;43.542;-5.676;2023-09-18T05:44:07;100926.78;;;20.78;100.00
71638;BME280;59485;43.542;-5.676;2023-09-18T05:46:36;100921.13;;;20.89;100.00
71638;BME280;59485;43.542;-5.676;2023-09-18T05:49:02;100929.41;;;20.84;100.00
71638;BME280;59485;43.542;-5.676;2023-09-18T05:51:28;100927.44;;;20.85;100.00
71638;BME280;59485;43.542;-5.676;2023-09-18T05:53:53;100939.38;;;20.80;100.00
71638;BME280;59485;43.542;-5.676;2023-09-18T05:56:19;100942.41;;;20.79;100.00
71638;BME280;59485;43.542;-5.676;2023-09-18T05:58:45;100946.88;;;20.80;100.00
71638;BME280;59485;43.542;-5.676;2023-09-18T06:01:10;100949.25;;;20.88;100.00
71638;BME280;59485;43.542;-5.676;2023-09-18T06:03:36;100961.59;;;20.92;100.00
71638;BME280;59485;43.542;-5.676;2023-09-18T06:06:02;100967.41;;;20.74;100.00
71638;BME280;59485;43.542;-5.676;2023-09-18T06:08:29;100978.31;;;20.75;100.00
71638;BME280;59485;43.542;-5.676;2023-09-18T06:10:56;101015.84;;;20.56;100.00
71638;BME280;59485;43.542;-5.676;2023-09-18T06:13:23;100991.41;;;20.75;100.00
71638;BME280;59485;43.542;-5.676;2023-09-18T06:15:49;100997.72;;;20.70;100.00
71638;BME280;59485;43.542;-5.676;2023-09-18T06:18:15;101022.41;;;20.50;100.00
71638;BME280;59485;43.542;-5.676;2023-09-18T06:20:44;101035.19;;;20.63;100.00
71638;BME280;59485;43.542;-5.676;2023-09-18T06:23:11;101034.06;;;20.47;100.00
71638;BME280;59485;43.542;-5.676;2023-09-18T06:25:36;101058.78;;;20.43;100.00
71638;BME280;59485;43.542;-5.676;2023-09-18T06:28:03;101054.72;;;20.51;100.00
71638;BME280;59485;43.542;-5.676;2023-09-18T06:30:29;101061.72;;;20.37;100.00
71638;BME280;59485;43.542;-5.676;2023-09-18T06:32:56;101097.59;;;20.10;100.00
71638;BME280;59485;43.542;-5.676;2023-09-18T06:35:22;101069.22;;;20.36;100.00
71638;BME280;59485;43.542;-5.676;2023-09-18T06:37:47;101086.38;;;20.33;100.00
71638;BME280;59485;43.542;-5.676;2023-09-18T06:40:13;101100.50;;;20.03;100.00
71638;BME280;59485;43.542;-5.676;2023-09-18T06:42:39;101110.56;;;19.93;100.00
71638;BME280;59485;43.542;-5.676;2023-09-18T06:45:05;101108.50;;;19.88;100.00
71638;BME280;59485;43.542;-5.676;2023-09-18T06:47:33;101121.56;;;19.88;100.00
71638;BME280;59485;43.542;-5.676;2023-09-18T06:49:58;101129.66;;;20.01;100.00
71638;BME280;59485;43.542;-5.676;2023-09-18T06:52:26;101152.66;;;19.73;100.00
71638;BME280;59485;43.542;-5.676;2023-09-18T06:54:52;101165.72;;;19.61;100.00
71638;BME280;59485;43.542;-5.676;2023-09-18T06:57:18;101156.88;;;19.52;100.00
71638;BME280;59485;43.542;-5.676;2023-09-18T06:59:43;101185.63;;;19.46;100.00
71638;BME280;59485;43.542;-5.676;2023-09-18T07:02:10;101178.66;;;19.55;100.00
71638;BME280;59485;43.542;-5.676;2023-09-18T07:04:40;101187.78;;;19.44;100.00
71638;BME280;59485;43.542;-5.676;2023-09-18T07:07:13;101190.41;;;19.27;100.00
71638;BME280;59485;43.542;-5.676;2023-09-18T07:09:40;101206.78;;;19.47;100.00
71638;BME280;59485;43.542;-5.676;2023-09-18T07:12:09;101199.75;;;19.44;100.00
71638;BME280;59485;43.542;-5.676;2023-09-18T07:14:35;101206.16;;;19.45;100.00
71638;BME280;59485;43.542;-5.676;2023-09-18T07:17:01;101215.34;;;19.45;100.00
71638;BME280;59485;43.542;-5.676;2023-09-18T07:19:27;101210.53;;;19.41;100.00
71638;BME280;59485;43.542;-5.676;2023-09-18T07:21:53;101213.50;;;19.58;100.00
71638;BME280;59485;43.542;-5.676;2023-09-18T07:24:18;101226.41;;;19.52;100.00
71638;BME280;59485;43.542;-5.676;2023-09-18T07:26:47;101235.88;;;19.74;100.00
71638;BME280;59485;43.542;-5.676;2023-09-18T07:29:16;101231.88;;;19.59;100.00
71638;BME280;59485;43.542;-5.676;2023-09-18T07:31:42;101244.47;;;19.73;100.00
71638;BME280;59485;43.542;-5.676;2023-09-18T07:34:08;101244.59;;;19.78;100.00
71638;BME280;59485;43.542;-5.676;2023-09-18T07:36:35;101250.66;;;19.75;100.00
71638;BME280;59485;43.542;-5.676;2023-09-18T07:39:00;101263.56;;;19.69;100.00
71638;BME280;59485;43.542;-5.676;2023-09-18T07:41:26;101273.94;;;19.62;100.00
71638;BME280;59485;43.542;-5.676;2023-09-18T07:43:51;101278.78;;;19.55;100.00
71638;BME280;59485;43.542;-5.676;2023-09-18T07:46:17;101277.13;;;19.77;100.00
71638;BME280;59485;43.542;-5.676;2023-09-18T07:48:42;101270.13;;;19.75;100.00
71638;BME280;59485;43.542;-5.676;2023-09-18T07:51:11;101277.00;;;19.72;100.00
71638;BME280;59485;43.542;-5.676;2023-09-18T07:53:38;101286.19;;;19.73;100.00
71638;BME280;59485;43.542;-5.676;2023-09-18T07:56:04;101294.94;;;19.88;100.00
71638;BME280;59485;43.542;-5.676;2023-09-18T07:58:31;101295.16;;;19.86;100.00
71638;BME280;59485;43.542;-5.676;2023-09-18T08:00:57;101297.94;;;19.86;100.00
71638;BME280;59485;43.542;-5.676;2023-09-18T08:03:31;101309.72;;;20.00;100.00
71638;BME280;59485;43.542;-5.676;2023-09-18T08:05:57;101308.75;;;19.95;100.00
71638;BME280;59485;43.542;-5.676;2023-09-18T08:08:23;101320.75;;;19.95;100.00
71638;BME280;59485;43.542;-5.676;2023-09-18T08:10:52;101323.16;;;20.15;100.00
71638;BME280;59485;43.542;-5.676;2023-09-18T08:13:18;101316.88;;;20.08;100.00
71638;BME280;59485;43.542;-5.676;2023-09-18T08:15:45;101333.06;;;19.99;100.00
71638;BME280;59485;43.542;-5.676;2023-09-18T08:18:11;101342.31;;;20.23;100.00
71638;BME280;59485;43.542;-5.676;2023-09-18T08:20:46;101337.00;;;20.33;100.00
71638;BME280;59485;43.542;-5.676;2023-09-18T08:23:11;101335.34;;;20.44;100.00
71638;BME280;59485;43.542;-5.676;2023-09-18T08:25:38;101347.09;;;20.57;100.00
71638;BME280;59485;43.542;-5.676;2023-09-18T08:28:05;101351.81;;;20.57;100.00
71638;BME280;59485;43.542;-5.676;2023-09-18T08:30:32;101349.25;;;20.67;100.00
71638;BME280;59485;43.542;-5.676;2023-09-18T08:32:57;101347.22;;;20.74;100.00
71638;BME280;59485;43.542;-5.676;2023-09-18T08:35:23;101341.41;;;20.76;100.00
71638;BME280;59485;43.542;-5.676;2023-09-18T08:37:53;101337.97;;;20.85;100.00
71638;BME280;59485;43.542;-5.676;2023-09-18T08:40:18;101343.91;;;21.01;100.00
71638;BME280;59485;43.542;-5.676;2023-09-18T08:42:46;101346.63;;;21.12;100.00
71638;BME280;59485;43.542;-5.676;2023-09-18T08:45:23;101356.47;;;21.03;100.00
71638;BME280;59485;43.542;-5.676;2023-09-18T08:47:51;101355.63;;;21.14;100.00
71638;BME280;59485;43.542;-5.676;2023-09-18T08:50:18;101364.22;;;21.13;100.00
71638;BME280;59485;43.542;-5.676;2023-09-18T08:52:47;101368.00;;;21.18;100.00
71638;BME280;59485;43.542;-5.676;2023-09-18T08:55:13;101371.03;;;21.28;100.00
71638;BME280;59485;43.542;-5.676;2023-09-18T08:57:39;101378.38;;;21.46;100.00
71638;BME280;59485;43.542;-5.676;2023-09-18T09:00:07;101371.94;;;21.46;100.00
71638;BME280;59485;43.542;-5.676;2023-09-18T09:02:34;101385.53;;;21.42;100.00
71638;BME280;59485;43.542;-5.676;2023-09-18T09:04:59;101381.09;;;21.58;100.00
71638;BME280;59485;43.542;-5.676;2023-09-18T09:07:26;101376.38;;;21.58;100.00
71638;BME280;59485;43.542;-5.676;2023-09-18T09:09:51;101373.03;;;21.73;100.00
71638;BME280;59485;43.542;-5.676;2023-09-18T09:12:46;101381.34;;;21.85;100.00
71638;BME280;59485;43.542;-5.676;2023-09-18T09:15:12;101391.66;;;21.84;100.00
71638;BME280;59485;43.542;-5.676;2023-09-18T09:17:38;101395.50;;;21.95;100.00
71638;BME280;59485;43.542;-5.676;2023-09-18T09:20:12;101397.41;;;22.06;100.00
71638;BME280;59485;43.542;-5.676;2023-09-18T09:22:39;101395.72;;;22.05;100.00
71638;BME280;59485;43.542;-5.676;2023-09-18T09:25:30;101410.13;;;22.14;100.00
71638;BME280;59485;43.542;-5.676;2023-09-18T09:28:01;101414.38;;;22.16;100.00
71638;BME280;59485;43.542;-5.676;2023-09-18T09:30:29;101413.59;;;22.21;100.00
71638;BME280;59485;43.542;-5.676;2023-09-18T09:32:56;101421.06;;;22.32;100.00
71638;BME280;59485;43.542;-5.676;2023-09-18T09:35:28;101418.94;;;22.39;100.00
71638;BME280;59485;43.542;-5.676;2023-09-18T09:37:57;101416.69;;;22.36;100.00
71638;BME280;59485;43.542;-5.676;2023-09-18T09:40:25;101415.66;;;22.42;100.00
71638;BME280;59485;43.542;-5.676;2023-09-18T09:42:55;101416.00;;;22.45;100.00
71638;BME280;59485;43.542;-5.676;2023-09-18T09:45:27;101425.56;;;22.50;100.00
71638;BME280;59485;43.542;-5.676;2023-09-18T09:48:04;101423.69;;;22.38;100.00
71638;BME280;59485;43.542;-5.676;2023-09-18T09:50:44;101436.56;;;22.39;100.00
71638;BME280;59485;43.542;-5.676;2023-09-18T09:53:13;101428.00;;;22.29;100.00
71638;BME280;59485;43.542;-5.676;2023-09-18T09:55:40;101435.81;;;22.44;100.00
71638;BME280;59485;43.542;-5.676;2023-09-18T09:58:07;101433.69;;;22.68;100.00
71638;BME280;59485;43.542;-5.676;2023-09-18T10:00:43;101433.22;;;22.88;100.00
71638;BME280;59485;43.542;-5.676;2023-09-18T10:03:12;101444.56;;;22.98;100.00
71638;BME280;59485;43.542;-5.676;2023-09-18T10:05:40;101437.22;;;23.13;100.00
71638;BME280;59485;43.542;-5.676;2023-09-18T10:08:09;101440.53;;;23.10;100.00
71638;BME280;59485;43.542;-5.676;2023-09-18T10:10:40;101449.53;;;23.12;100.00
71638;BME280;59485;43.542;-5.676;2023-09-18T10:13:09;101476.31;;;22.92;100.00
71638;BME280;59485;43.542;-5.676;2023-09-18T10:15:37;101446.00;;;22.83;100.00
71638;BME280;59485;43.542;-5.676;2023-09-18T10:18:05;101443.72;;;22.97;100.00
71638;BME280;59485;43.542;-5.676;2023-09-18T10:20:37;101456.16;;;23.06;100.00
71638;BME280;59485;43.542;-5.676;2023-09-18T10:23:14;101447.03;;;23.33;100.00
71638;BME280;59485;43.542;-5.676;2023-09-18T10:25:45;101451.81;;;23.15;100.00
71638;BME280;59485;43.542;-5.676;2023-09-18T10:28:14;101456.56;;;23.15;100.00
71638;BME280;59485;43.542;-5.676;2023-09-18T10:30:42;101448.63;;;23.29;100.00
71638;BME280;59485;43.542;-5.676;2023-09-18T10:33:08;101478.28;;;23.08;100.00
71638;BME280;59485;43.542;-5.676;2023-09-18T10:35:35;101461.22;;;23.26;100.00
71638;BME280;59485;43.542;-5.676;2023-09-18T10:38:03;101462.72;;;23.34;100.00
71638;BME280;59485;43.542;-5.676;2023-09-18T10:40:31;101471.25;;;23.44;100.00
71638;BME280;59485;43.542;-5.676;2023-09-18T10:42:59;101463.63;;;23.39;100.00
71638;BME280;59485;43.542;-5.676;2023-09-18T10:45:27;101466.34;;;23.51;100.00
71638;BME280;59485;43.542;-5.676;2023-09-18T10:47:54;101470.88;;;23.57;100.00
71638;BME280;59485;43.542;-5.676;2023-09-18T10:50:24;101460.22;;;23.37;100.00
71638;BME280;59485;43.542;-5.676;2023-09-18T10:52:50;101463.34;;;23.58;100.00
71638;BME280;59485;43.542;-5.676;2023-09-18T10:55:16;101472.19;;;23.71;100.00
71638;BME280;59485;43.542;-5.676;2023-09-18T10:57:55;101464.25;;;23.85;100.00
71638;BME280;59485;43.542;-5.676;2023-09-18T11:00:24;101465.09;;;23.64;100.00
71638;BME280;59485;43.542;-5.676;2023-09-18T11:02:53;101469.28;;;23.44;100.00
71638;BME280;59485;43.542;-5.676;2023-09-18T11:05:30;101466.88;;;23.70;100.00
71638;BME280;59485;43.542;-5.676;2023-09-18T11:13:31;101465.59;;;23.82;100.00
71638;BME280;59485;43.542;-5.676;2023-09-18T11:21:30;101472.22;;;24.47;100.00
71638;BME280;59485;43.542;-5.676;2023-09-18T11:26:33;101481.19;;;23.95;100.00
71638;BME280;59485;43.542;-5.676;2023-09-18T11:29:22;101484.44;;;23.87;100.00
71638;BME280;59485;43.542;-5.676;2023-09-18T11:31:52;101499.47;;;23.81;100.00
71638;BME280;59485;43.542;-5.676;2023-09-18T11:34:29;101485.34;;;23.92;100.00
71638;BME280;59485;43.542;-5.676;2023-09-18T11:36:58;101480.19;;;24.06;100.00
71638;BME280;59485;43.542;-5.676;2023-09-18T11:39:38;101483.94;;;24.17;100.00
71638;BME280;59485;43.542;-5.676;2023-09-18T11:44:36;101491.38;;;23.63;100.00
71638;BME280;59485;43.542;-5.676;2023-09-18T11:47:10;101513.53;;;23.47;100.00
71638;BME280;59485;43.542;-5.676;2023-09-18T11:49:48;101522.06;;;23.52;100.00
71638;BME280;59485;43.542;-5.676;2023-09-18T11:52:20;101505.06;;;23.59;100.00
71638;BME280;59485;43.542;-5.676;2023-09-18T11:54:47;101500.97;;;23.67;100.00
71638;BME280;59485;43.542;-5.676;2023-09-18T11:57:14;101517.56;;;23.51;100.00
71638;BME280;59485;43.542;-5.676;2023-09-18T11:59:41;101513.94;;;23.34;100.00
71638;BME280;59485;43.542;-5.676;2023-09-18T12:02:12;101509.59;;;23.43;100.00
71638;BME280;59485;43.542;-5.676;2023-09-18T12:04:46;101520.38;;;23.35;100.00
71638;BME280;59485;43.542;-5.676;2023-09-18T12:07:12;101526.38;;;23.60;100.00
71638;BME280;59485;43.542;-5.676;2023-09-18T12:09:39;101510.75;;;23.47;100.00
71638;BME280;59485;43.542;-5.676;2023-09-18T12:12:08;101523.81;;;23.59;100.00
71638;BME280;59485;43.542;-5.676;2023-09-18T12:14:34;101497.66;;;23.70;100.00
71638;BME280;59485;43.542;-5.676;2023-09-18T12:17:01;101521.56;;;23.77;100.00
71638;BME280;59485;43.542;-5.676;2023-09-18T12:19:28;101511.97;;;23.73;100.00
71638;BME280;59485;43.542;-5.676;2023-09-18T12:21:53;101512.84;;;23.96;100.00
71638;BME280;59485;43.542;-5.676;2023-09-18T12:24:23;101523.31;;;24.05;100.00
71638;BME280;59485;43.542;-5.676;2023-09-18T12:26:49;101526.81;;;23.74;100.00
71638;BME280;59485;43.542;-5.676;2023-09-18T12:29:15;101518.69;;;23.72;100.00
71638;BME280;59485;43.542;-5.676;2023-09-18T12:31:41;101531.19;;;23.48;100.00
71638;BME280;59485;43.542;-5.676;2023-09-18T12:34:15;101526.88;;;23.57;100.00
71638;BME280;59485;43.542;-5.676;2023-09-18T12:36:42;101521.63;;;23.44;100.00
71638;BME280;59485;43.542;-5.676;2023-09-18T12:39:09;101527.53;;;23.64;100.00
71638;BME280;59485;43.542;-5.676;2023-09-18T12:44:28;101518.28;;;23.64;100.00
71638;BME280;59485;43.542;-5.676;2023-09-18T12:46:54;101518.72;;;23.55;100.00
71638;BME280;59485;43.542;-5.676;2023-09-18T12:49:22;101526.88;;;23.57;100.00
71638;BME280;59485;43.542;-5.676;2023-09-18T12:52:00;101521.53;;;23.55;100.00
71638;BME280;59485;43.542;-5.676;2023-09-18T12:54:43;101509.31;;;23.62;100.00